Time;durP1;ratioP1;P1;durP2;ratioP2;P2;SDS_P1;SDS_P2;PMS_P1;PMS_P2;Temp;Humidity;BMP_temperature;BMP_pressure;BME280_temperature;BME280_humidity;BME280_pressure;Samples;Min_cycle;Max_cycle;Signal;HPM_P1;HPM_P2
2023/03/05 00:00:06;;;;;;;;;;;4.70;99.90;5.20;99868.00;;;;338766;28;89995;-88
2023/03/05 00:00:18;;;;;;;;;;;4.70;99.90;5.20;99856.00;;;;337647;28;83497;-88
2023/03/05 00:00:29;;;;;;;;;;;4.70;99.90;5.10;99858.00;;;;337295;28;91930;-88
2023/03/05 00:00:41;;;;;;;;;;;4.70;99.90;5.30;99863.00;;;;340377;28;82511;-88
2023/03/05 00:00:53;;;;;;;;;;;4.70;99.90;5.30;99858.00;;;;338334;28;91897;-88
2023/03/05 00:01:09;;;;;;;;;;;4.70;99.90;5.20;99862.00;;;;337837;28;83517;-88
2023/03/05 00:01:32;;;;;;;;;;;4.70;99.90;5.20;99862.00;;;;337360;28;91596;-88
2023/03/05 00:01:44;;;;;;;;;;;4.70;99.90;5.20;99866.00;;;;340137;28;83611;-88
2023/03/05 00:01:56;;;;;;;;;;;4.70;99.90;5.20;99864.00;;;;337383;28;89451;-88
2023/03/05 00:02:07;;;;;;;;;;;4.70;99.90;5.20;99863.00;;;;336985;28;83628;-88
2023/03/05 00:02:19;;;;;;;;;;;4.70;99.90;5.20;99863.00;;;;338552;28;90150;-88
2023/03/05 00:02:31;;;;;;;;;;;4.70;99.90;5.20;99869.00;;;;340398;28;83476;-88
2023/03/05 00:02:43;;;;;;;;;;;4.70;99.90;5.30;99858.00;;;;337332;28;91398;-88
2023/03/05 00:02:55;;;;;;;;;;;4.70;99.90;5.30;99860.00;;;;338903;28;82775;-87
2023/03/05 00:03:07;;;;;;;;;;;4.70;99.90;5.30;99871.00;;;;337055;28;92538;-89
2023/03/05 00:03:18;;;;;;;;;;;4.70;99.90;5.30;99861.00;;;;337725;28;82523;-88
2023/03/05 00:03:30;;;;;;;;;;;4.70;99.90;5.30;99874.00;;;;334509;29;91698;-88
2023/03/05 00:03:42;;;;;;;;;;;4.70;99.90;5.30;99863.00;;;;337557;28;83536;-88
2023/03/05 00:03:55;;;;;;;;;;;4.70;99.90;5.30;99867.00;;;;338813;28;88085;-88
2023/03/05 00:04:09;;;;;;;;;;;4.70;99.90;5.30;99869.00;;;;337833;28;83662;-88
2023/03/05 00:04:22;;;;;;;;;;;4.70;99.90;5.30;99862.00;;;;338578;28;90625;-89
2023/03/05 00:04:34;;;;;;;;;;;4.70;99.90;5.40;99868.00;;;;337833;28;83285;-88
2023/03/05 00:04:46;;;;;;;;;;;4.70;99.90;5.40;99867.00;;;;338714;28;89020;-88
2023/03/05 00:04:57;;;;;;;;;;;4.70;99.90;5.30;99865.00;;;;336394;28;82527;-88
2023/03/05 00:05:09;;;;;;;;;;;4.70;99.90;5.30;99868.00;;;;338562;28;92785;-88
2023/03/05 00:05:21;;;;;;;;;;;4.70;99.90;5.30;99862.00;;;;344613;28;84003;-88
2023/03/05 00:05:33;;;;;;;;;;;4.70;99.90;5.20;99858.00;;;;340127;28;90383;-88
2023/03/05 00:05:45;;;;;;;;;;;4.70;99.90;5.20;99862.00;;;;337688;28;83558;-88
2023/03/05 00:05:57;;;;;;;;;;;4.70;99.90;5.30;99870.00;;;;346887;28;91874;-88
2023/03/05 00:06:09;;;;;;;;;;;4.70;99.90;5.30;99864.00;;;;345891;28;83450;-89
2023/03/05 00:06:21;;;;;;;;;;;4.70;99.90;5.30;99865.00;;;;337078;28;90463;-88
2023/03/05 00:06:33;;;;;;;;;;;4.70;99.90;5.40;99863.00;;;;339149;28;82440;-89
2023/03/05 00:06:45;;;;;;;;;;;4.70;99.90;5.30;99868.00;;;;338472;28;91336;-88
2023/03/05 00:06:57;;;;;;;;;;;4.70;99.90;5.30;99867.00;;;;339124;28;82337;-88
2023/03/05 00:07:11;;;;;;;;;;;4.70;99.90;5.30;99868.00;;;;338634;28;91781;-88
2023/03/05 00:07:22;;;;;;;;;;;4.70;99.90;5.30;99864.00;;;;340435;28;83372;-88
2023/03/05 00:07:34;;;;;;;;;;;4.70;99.90;5.30;99870.00;;;;338702;28;90854;-88
2023/03/05 00:07:47;;;;;;;;;;;4.70;99.90;5.30;99868.00;;;;345968;28;83275;-89
2023/03/05 00:07:59;;;;;;;;;;;4.70;99.90;5.30;99870.00;;;;345693;28;87633;-88
2023/03/05 00:08:11;;;;;;;;;;;4.70;99.90;5.30;99863.00;;;;347310;28;83742;-88
2023/03/05 00:08:23;;;;;;;;;;;4.70;99.90;5.30;99870.00;;;;345529;28;91284;-88
2023/03/05 00:08:35;;;;;;;;;;;4.70;99.90;5.30;99866.00;;;;348896;27;82250;-88
2023/03/05 00:08:48;;;;;;;;;;;4.70;99.90;5.40;99867.00;;;;344306;28;87674;-88
2023/03/05 00:08:59;;;;;;;;;;;4.70;99.90;5.30;99871.00;;;;347346;28;83369;-88
2023/03/05 00:09:12;;;;;;;;;;;4.70;99.90;5.30;99868.00;;;;347011;28;89039;-88
2023/03/05 00:09:23;;;;;;;;;;;4.70;99.90;5.30;99867.00;;;;343235;28;82528;-88
2023/03/05 00:09:35;;;;;;;;;;;4.70;99.90;5.30;99867.00;;;;345315;28;90122;-88
2023/03/05 00:09:47;;;;;;;;;;;4.80;99.90;5.30;99865.00;;;;344601;28;83372;-88
2023/03/05 00:10:00;;;;;;;;;;;4.70;99.90;5.30;99867.00;;;;345345;28;89728;-88
2023/03/05 00:10:11;;;;;;;;;;;4.70;99.90;5.20;99866.00;;;;344685;28;82539;-88
2023/03/05 00:10:23;;;;;;;;;;;4.70;99.90;5.30;99873.00;;;;344291;28;88292;-88
2023/03/05 00:10:35;;;;;;;;;;;4.70;99.90;5.30;99866.00;;;;346122;28;83342;-88
2023/03/05 00:10:54;;;;;;;;;;;4.70;99.90;5.20;99867.00;;;;344236;28;91532;-88
2023/03/05 00:11:07;;;;;;;;;;;4.80;99.90;5.30;99867.00;;;;344668;28;83340;-88
2023/03/05 00:11:19;;;;;;;;;;;4.70;99.90;5.30;99864.00;;;;342772;28;93267;-88
2023/03/05 00:11:32;;;;;;;;;;;4.70;99.90;5.30;99857.00;;;;346019;28;82559;-88
2023/03/05 00:11:44;;;;;;;;;;;4.70;99.90;5.30;99871.00;;;;343988;28;88842;-88
2023/03/05 00:11:55;;;;;;;;;;;4.70;99.90;5.30;99863.00;;;;344602;28;83455;-88
2023/03/05 00:12:07;;;;;;;;;;;4.70;99.90;5.20;99862.00;;;;347023;28;90060;-88
2023/03/05 00:12:19;;;;;;;;;;;4.70;99.90;5.30;99864.00;;;;347407;28;82409;-88
2023/03/05 00:12:31;;;;;;;;;;;4.70;99.90;5.30;99875.00;;;;345672;28;89512;-88
2023/03/05 00:12:43;;;;;;;;;;;4.70;99.90;5.20;99872.00;;;;347525;28;82351;-88
2023/03/05 00:12:55;;;;;;;;;;;4.70;99.90;5.30;99862.00;;;;344251;28;90466;-89
2023/03/05 00:13:07;;;;;;;;;;;4.70;99.90;5.20;99872.00;;;;344658;28;83457;-88
2023/03/05 00:13:18;;;;;;;;;;;4.70;99.90;5.20;99868.00;;;;346682;28;90409;-88
2023/03/05 00:13:31;;;;;;;;;;;4.70;99.90;5.20;99870.00;;;;347503;28;82485;-88
2023/03/05 00:13:42;;;;;;;;;;;4.70;99.90;5.00;99867.00;;;;345372;28;91110;-88
2023/03/05 00:13:55;;;;;;;;;;;4.70;99.90;5.00;99873.00;;;;347324;28;83512;-88
2023/03/05 00:14:07;;;;;;;;;;;4.60;99.90;5.10;99878.00;;;;345434;28;90514;-88
2023/03/05 00:14:19;;;;;;;;;;;4.70;99.90;5.10;99868.00;;;;347396;28;83462;-87
2023/03/05 00:14:30;;;;;;;;;;;4.60;99.90;5.00;99877.00;;;;345380;28;89028;-88
2023/03/05 00:14:42;;;;;;;;;;;4.60;99.90;5.10;99866.00;;;;346056;28;82381;-88
2023/03/05 00:14:54;;;;;;;;;;;4.60;99.90;5.10;99875.00;;;;345575;28;89790;-88
2023/03/05 00:15:07;;;;;;;;;;;4.60;99.90;5.10;99873.00;;;;345996;28;82519;-88
2023/03/05 00:15:18;;;;;;;;;;;4.60;99.90;5.10;99869.00;;;;345486;28;92536;-89
2023/03/05 00:15:30;;;;;;;;;;;4.60;99.90;5.10;99863.00;;;;346179;28;83335;-88
2023/03/05 00:15:42;;;;;;;;;;;4.60;99.90;5.10;99872.00;;;;346889;28;90822;-88
2023/03/05 00:15:54;;;;;;;;;;;4.60;99.90;5.10;99869.00;;;;344632;28;83409;-88
2023/03/05 00:16:10;;;;;;;;;;;4.60;99.90;5.10;99875.00;;;;346800;28;90464;-88
2023/03/05 00:16:22;;;;;;;;;;;4.60;99.90;5.10;99869.00;;;;347404;28;83492;-88
2023/03/05 00:16:34;;;;;;;;;;;4.60;99.90;5.10;99872.00;;;;344194;28;91708;-88
2023/03/05 00:16:46;;;;;;;;;;;4.60;99.90;5.10;99876.00;;;;346045;28;83414;-88
2023/03/05 00:16:57;;;;;;;;;;;4.60;99.90;5.10;99865.00;;;;343799;28;90509;-88
2023/03/05 00:17:09;;;;;;;;;;;4.60;99.90;5.10;99872.00;;;;347242;28;83477;-88
2023/03/05 00:17:21;;;;;;;;;;;4.60;99.90;5.00;99864.00;;;;344011;28;92341;-88
2023/03/05 00:17:33;;;;;;;;;;;4.60;99.90;5.10;99875.00;;;;345836;28;83627;-89
2023/03/05 00:17:45;;;;;;;;;;;4.60;99.90;5.10;99873.00;;;;345610;28;90723;-88
2023/03/05 00:17:56;;;;;;;;;;;4.60;99.90;5.10;99863.00;;;;347274;28;82648;-88
2023/03/05 00:18:08;;;;;;;;;;;4.60;99.90;5.10;99870.00;;;;345469;28;91649;-88
2023/03/05 00:18:20;;;;;;;;;;;4.50;99.90;5.10;99876.00;;;;345802;28;83222;-89
2023/03/05 00:18:32;;;;;;;;;;;4.50;99.90;5.00;99881.00;;;;345547;28;91852;-88
2023/03/05 00:18:45;;;;;;;;;;;4.50;99.90;5.00;99864.00;;;;345985;28;83400;-88
2023/03/05 00:18:57;;;;;;;;;;;4.50;99.90;5.00;99862.00;;;;345353;28;89467;-88
2023/03/05 00:19:09;;;;;;;;;;;4.50;99.90;4.90;99873.00;;;;346062;28;83503;-88
2023/03/05 00:19:21;;;;;;;;;;;4.50;99.90;5.00;99875.00;;;;347065;28;88422;-88
2023/03/05 00:19:33;;;;;;;;;;;4.50;99.90;5.00;99872.00;;;;347421;28;83410;-88
2023/03/05 00:19:44;;;;;;;;;;;4.50;99.90;5.10;99866.00;;;;342863;28;89184;-88
2023/03/05 00:19:57;;;;;;;;;;;4.50;99.90;5.10;99867.00;;;;347345;28;83279;-88
2023/03/05 00:20:11;;;;;;;;;;;4.50;99.90;5.10;99870.00;;;;345737;28;88041;-88
2023/03/05 00:20:23;;;;;;;;;;;4.50;99.90;5.10;99874.00;;;;345977;28;83512;-88
2023/03/05 00:20:35;;;;;;;;;;;4.50;99.90;5.10;99879.00;;;;345377;28;90646;-88
2023/03/05 00:20:47;;;;;;;;;;;4.50;99.90;5.10;99879.00;;;;348951;27;83266;-88
2023/03/05 00:20:59;;;;;;;;;;;4.50;99.90;5.10;99872.00;;;;345525;28;89806;-88
2023/03/05 00:21:25;;;;;;;;;;;4.50;99.90;5.10;99869.00;;;;344463;28;82637;-88
2023/03/05 00:21:38;;;;;;;;;;;4.50;99.90;5.00;99870.00;;;;345369;28;90394;-88
2023/03/05 00:21:49;;;;;;;;;;;4.50;99.90;5.10;99885.00;;;;343246;28;82551;-88
2023/03/05 00:22:01;;;;;;;;;;;4.50;99.90;5.10;99872.00;;;;345602;28;89036;-88
2023/03/05 00:22:13;;;;;;;;;;;4.50;99.90;5.10;99885.00;;;;347472;28;83303;-88
2023/03/05 00:22:25;;;;;;;;;;;4.50;99.90;5.10;99877.00;;;;346922;28;89471;-88
2023/03/05 00:22:37;;;;;;;;;;;4.50;99.90;5.10;99880.00;;;;346023;28;83526;-88
2023/03/05 00:22:48;;;;;;;;;;;4.50;99.90;5.10;99877.00;;;;345747;28;88777;-88
2023/03/05 00:23:00;;;;;;;;;;;4.50;99.90;5.10;99863.00;;;;347424;28;83491;-88
2023/03/05 00:23:12;;;;;;;;;;;4.50;99.90;5.10;99876.00;;;;345579;28;91463;-88
2023/03/05 00:23:24;;;;;;;;;;;4.50;99.90;5.10;99871.00;;;;344723;28;82945;-88
2023/03/05 00:23:36;;;;;;;;;;;4.50;99.90;5.10;99876.00;;;;345508;28;91800;-88
2023/03/05 00:23:49;;;;;;;;;;;4.50;99.90;5.10;99875.00;;;;347489;28;83538;-88
2023/03/05 00:24:02;;;;;;;;;;;4.50;99.90;5.10;99864.00;;;;344189;28;90730;-88
2023/03/05 00:24:16;;;;;;;;;;;4.50;99.90;5.10;99874.00;;;;347196;28;83570;-87
2023/03/05 00:24:28;;;;;;;;;;;4.50;99.90;5.10;99880.00;;;;348250;27;92147;-88
2023/03/05 00:24:40;;;;;;;;;;;4.50;99.90;5.00;99878.00;;;;346103;28;83324;-88
2023/03/05 00:24:51;;;;;;;;;;;4.50;99.90;5.00;99875.00;;;;345732;28;89098;-88
2023/03/05 00:25:04;;;;;;;;;;;4.50;99.90;5.10;99873.00;;;;347082;28;82654;-88
2023/03/05 00:25:15;;;;;;;;;;;4.50;99.90;5.10;99872.00;;;;344271;28;89589;-88
2023/03/05 00:25:27;;;;;;;;;;;4.50;99.90;5.10;99868.00;;;;345990;28;83429;-88
2023/03/05 00:25:39;;;;;;;;;;;4.50;99.90;5.10;99870.00;;;;345466;28;92081;-88
2023/03/05 00:25:51;;;;;;;;;;;4.50;99.90;5.10;99873.00;;;;344730;28;82485;-88
2023/03/05 00:26:06;;;;;;;;;;;4.50;99.90;5.10;99872.00;;;;344212;28;89731;-88
2023/03/05 00:26:19;;;;;;;;;;;4.50;99.90;5.00;99881.00;;;;345747;28;83502;-87
2023/03/05 00:26:33;;;;;;;;;;;4.50;99.90;4.90;99873.00;;;;345446;28;90174;-88
2023/03/05 00:26:45;;;;;;;;;;;4.50;99.90;4.80;99880.00;;;;346117;28;82482;-89
2023/03/05 00:26:57;;;;;;;;;;;4.40;99.90;4.80;99880.00;;;;345620;28;90353;-88
2023/03/05 00:27:09;;;;;;;;;;;4.40;99.90;4.90;99873.00;;;;347402;28;83475;-88
2023/03/05 00:27:20;;;;;;;;;;;4.40;99.90;4.90;99880.00;;;;346933;28;91503;-88
2023/03/05 00:27:32;;;;;;;;;;;4.40;99.90;4.90;99885.00;;;;347527;28;82399;-88
2023/03/05 00:27:44;;;;;;;;;;;4.40;99.90;4.90;99877.00;;;;344141;28;92315;-88
2023/03/05 00:27:56;;;;;;;;;;;4.40;99.90;5.00;99883.00;;;;344681;28;84117;-88
2023/03/05 00:28:08;;;;;;;;;;;4.40;99.90;5.00;99884.00;;;;345673;28;89815;-88
2023/03/05 00:28:20;;;;;;;;;;;4.40;99.90;5.00;99873.00;;;;346092;28;83438;-88
2023/03/05 00:28:31;;;;;;;;;;;4.40;99.90;4.90;99879.00;;;;346980;28;90248;-88
2023/03/05 00:28:43;;;;;;;;;;;4.40;99.90;4.90;99878.00;;;;346059;28;83442;-88
2023/03/05 00:28:56;;;;;;;;;;;4.40;99.90;5.00;99875.00;;;;345569;28;91546;-88
2023/03/05 00:29:17;;;;;;;;;;;4.40;99.90;5.00;99885.00;;;;343287;28;83460;-89
2023/03/05 00:29:29;;;;;;;;;;;4.40;99.90;4.90;99879.00;;;;345539;28;90096;-88
2023/03/05 00:29:42;;;;;;;;;;;4.40;99.90;4.90;99887.00;;;;345686;28;82603;-88
2023/03/05 00:29:54;;;;;;;;;;;4.40;99.90;4.90;99875.00;;;;345652;28;88650;-88
2023/03/05 00:30:07;;;;;;;;;;;4.40;99.90;5.00;99872.00;;;;347371;28;83347;-89
2023/03/05 00:30:18;;;;;;;;;;;4.40;99.90;5.00;99887.00;;;;346796;28;88873;-88
2023/03/05 00:30:31;;;;;;;;;;;4.40;99.90;5.00;99881.00;;;;344728;28;83351;-89
2023/03/05 00:30:42;;;;;;;;;;;4.40;99.90;4.90;99875.00;;;;345680;28;88153;-89
2023/03/05 00:31:00;;;;;;;;;;;4.40;99.90;4.90;99885.00;;;;345746;28;83537;-88
2023/03/05 00:31:12;;;;;;;;;;;4.40;99.90;5.00;99879.00;;;;346729;28;89539;-88
2023/03/05 00:31:29;;;;;;;;;;;4.40;99.90;5.10;99886.00;;;;345891;28;83107;-88
2023/03/05 00:31:43;;;;;;;;;;;4.40;99.90;4.90;99887.00;;;;344337;28;88608;-88
2023/03/05 00:31:55;;;;;;;;;;;4.40;99.90;5.00;99880.00;;;;346353;28;82274;-89
2023/03/05 00:32:06;;;;;;;;;;;4.40;99.90;5.00;99879.00;;;;344290;28;90512;-89
2023/03/05 00:32:18;;;;;;;;;;;4.40;99.90;5.00;99886.00;;;;345946;28;83532;-88
2023/03/05 00:32:30;;;;;;;;;;;4.40;99.90;5.00;99886.00;;;;344072;28;89346;-88
2023/03/05 00:32:42;;;;;;;;;;;4.40;99.90;5.00;99888.00;;;;343609;28;82502;-89
2023/03/05 00:32:54;;;;;;;;;;;4.40;99.90;4.90;99873.00;;;;342710;28;91086;-89
2023/03/05 00:33:06;;;;;;;;;;;4.40;99.90;4.90;99881.00;;;;343421;28;83352;-89
2023/03/05 00:33:18;;;;;;;;;;;4.40;99.90;4.90;99888.00;;;;345235;28;88516;-88
2023/03/05 00:33:29;;;;;;;;;;;4.30;99.90;5.00;99886.00;;;;347450;28;82538;-88
2023/03/05 00:33:42;;;;;;;;;;;4.40;99.90;5.00;99880.00;;;;345646;28;89368;-89
2023/03/05 00:33:55;;;;;;;;;;;4.40;99.90;5.10;99892.00;;;;346176;28;83421;-89
2023/03/05 00:34:08;;;;;;;;;;;4.40;99.90;5.00;99888.00;;;;344038;28;91278;-88
2023/03/05 00:34:20;;;;;;;;;;;4.40;99.90;4.90;99887.00;;;;344648;28;83476;-88
2023/03/05 00:34:32;;;;;;;;;;;4.40;99.90;4.80;99882.00;;;;345605;28;89485;-89
2023/03/05 00:34:44;;;;;;;;;;;4.40;99.90;4.80;99878.00;;;;346253;28;82412;-88
2023/03/05 00:34:56;;;;;;;;;;;4.40;99.90;4.80;99893.00;;;;342919;28;88980;-88
2023/03/05 00:35:08;;;;;;;;;;;4.30;99.90;4.90;99886.00;;;;346069;28;82628;-88
2023/03/05 00:35:19;;;;;;;;;;;4.30;99.90;4.90;99891.00;;;;345531;28;89810;-88
2023/03/05 00:35:37;;;;;;;;;;;4.30;99.90;4.90;99884.00;;;;344364;28;83535;-89
2023/03/05 00:35:49;;;;;;;;;;;4.30;99.90;4.90;99889.00;;;;342870;28;90670;-88
2023/03/05 00:36:04;;;;;;;;;;;4.30;99.90;4.90;99901.00;;;;345852;28;82463;-88
2023/03/05 00:36:16;;;;;;;;;;;4.30;99.90;4.90;99894.00;;;;344090;28;89749;-88
2023/03/05 00:36:28;;;;;;;;;;;4.30;99.90;4.80;99898.00;;;;344501;28;82598;-88
2023/03/05 00:36:42;;;;;;;;;;;4.30;99.90;4.80;99894.00;;;;344334;28;87890;-88
2023/03/05 00:36:53;;;;;;;;;;;4.30;99.90;4.90;99894.00;;;;344688;28;82511;-88
2023/03/05 00:37:06;;;;;;;;;;;4.30;99.90;4.80;99892.00;;;;345557;28;89123;-88
2023/03/05 00:37:18;;;;;;;;;;;4.30;99.90;4.80;99896.00;;;;346029;28;83536;-88
2023/03/05 00:37:29;;;;;;;;;;;4.30;99.90;4.80;99897.00;;;;346723;28;90786;-88
2023/03/05 00:37:41;;;;;;;;;;;4.30;99.90;4.90;99888.00;;;;347501;28;82522;-88
2023/03/05 00:37:53;;;;;;;;;;;4.30;99.90;4.90;99899.00;;;;346561;28;90633;-88
2023/03/05 00:38:05;;;;;;;;;;;4.30;99.90;4.80;99898.00;;;;345964;28;83521;-88
2023/03/05 00:38:17;;;;;;;;;;;4.30;99.90;4.80;99892.00;;;;345593;28;89581;-88
2023/03/05 00:38:28;;;;;;;;;;;4.30;99.90;4.80;99903.00;;;;347311;27;83522;-87
2023/03/05 00:38:40;;;;;;;;;;;4.30;99.90;4.80;99889.00;;;;346821;28;91203;-88
2023/03/05 00:38:52;;;;;;;;;;;4.30;99.90;4.80;99885.00;;;;345995;28;83356;-88
2023/03/05 00:39:04;;;;;;;;;;;4.30;99.90;4.80;99901.00;;;;345619;28;89145;-88
2023/03/05 00:39:16;;;;;;;;;;;4.30;99.90;4.80;99897.00;;;;347424;28;82468;-88
2023/03/05 00:39:28;;;;;;;;;;;4.30;99.90;4.90;99901.00;;;;345603;28;88400;-88
2023/03/05 00:39:40;;;;;;;;;;;4.30;99.90;4.90;99894.00;;;;347064;27;83522;-88
2023/03/05 00:39:52;;;;;;;;;;;4.30;99.90;4.90;99906.00;;;;344236;28;87262;-88
2023/03/05 00:40:04;;;;;;;;;;;4.30;99.90;4.90;99904.00;;;;344401;28;83405;-88
2023/03/05 00:40:16;;;;;;;;;;;4.30;99.90;4.90;99910.00;;;;345444;28;90815;-88
2023/03/05 00:40:28;;;;;;;;;;;4.30;99.90;4.80;99891.00;;;;345941;28;83339;-88
2023/03/05 00:40:40;;;;;;;;;;;4.20;99.90;4.80;99891.00;;;;344299;28;89137;-88
2023/03/05 00:40:52;;;;;;;;;;;4.30;99.90;4.70;99910.00;;;;344591;28;83425;-89
2023/03/05 00:41:04;;;;;;;;;;;4.30;99.90;4.80;99904.00;;;;347030;28;88350;-89
2023/03/05 00:41:16;;;;;;;;;;;4.30;99.90;4.80;99902.00;;;;345929;28;82651;-88
2023/03/05 00:41:27;;;;;;;;;;;4.30;99.90;4.80;99899.00;;;;345575;28;90268;-88
2023/03/05 00:41:39;;;;;;;;;;;4.30;99.90;4.70;99907.00;;;;346936;28;83583;-88
2023/03/05 00:41:51;;;;;;;;;;;4.30;99.90;4.80;99888.00;;;;344319;28;90311;-88
2023/03/05 00:42:03;;;;;;;;;;;4.30;99.90;4.80;99904.00;;;;344597;28;83380;-88
2023/03/05 00:42:15;;;;;;;;;;;4.30;99.90;4.80;99896.00;;;;346821;28;90513;-88
2023/03/05 00:42:26;;;;;;;;;;;4.30;99.90;4.80;99902.00;;;;347210;28;83421;-88
2023/03/05 00:42:38;;;;;;;;;;;4.30;99.90;4.80;99888.00;;;;345449;28;88419;-88
2023/03/05 00:42:50;;;;;;;;;;;4.30;99.90;4.80;99896.00;;;;347497;28;83069;-88
2023/03/05 00:43:02;;;;;;;;;;;4.30;99.90;4.80;99892.00;;;;348344;27;90601;-88
2023/03/05 00:43:14;;;;;;;;;;;4.30;99.90;4.90;99908.00;;;;347274;28;83597;-88
2023/03/05 00:43:26;;;;;;;;;;;4.30;99.90;4.90;99890.00;;;;348328;27;91546;-88
2023/03/05 00:43:38;;;;;;;;;;;4.30;99.90;4.90;99897.00;;;;345824;28;83624;-88
2023/03/05 00:43:50;;;;;;;;;;;4.30;99.90;4.80;99896.00;;;;344337;28;87931;-88
2023/03/05 00:44:02;;;;;;;;;;;4.30;99.90;4.70;99898.00;;;;346072;28;83351;-89
2023/03/05 00:44:13;;;;;;;;;;;4.30;99.90;4.70;99886.00;;;;346873;28;91299;-87
2023/03/05 00:44:25;;;;;;;;;;;4.20;99.90;4.70;99903.00;;;;345949;28;83525;-88
2023/03/05 00:44:37;;;;;;;;;;;4.20;99.90;4.80;99893.00;;;;346924;28;90295;-89
2023/03/05 00:44:49;;;;;;;;;;;4.20;99.90;4.80;99883.00;;;;347463;28;82488;-88
2023/03/05 00:45:01;;;;;;;;;;;4.20;99.90;4.80;99893.00;;;;344166;28;89313;-88
2023/03/05 00:45:13;;;;;;;;;;;4.20;99.90;4.80;99895.00;;;;346121;28;82399;-88
2023/03/05 00:45:24;;;;;;;;;;;4.20;99.90;4.90;99897.00;;;;347011;28;88598;-88
2023/03/05 00:45:36;;;;;;;;;;;4.20;99.90;4.80;99895.00;;;;346026;28;82455;-88
2023/03/05 00:45:48;;;;;;;;;;;4.30;99.90;4.70;99901.00;;;;346995;28;89119;-88
2023/03/05 00:46:00;;;;;;;;;;;4.20;99.90;4.80;99891.00;;;;347360;28;83356;-88
2023/03/05 00:46:12;;;;;;;;;;;4.20;99.90;4.80;99894.00;;;;346680;28;91033;-88
2023/03/05 00:46:26;;;;;;;;;;;4.20;99.90;4.80;99898.00;;;;347298;28;82440;-88
2023/03/05 00:46:39;;;;;;;;;;;4.20;99.90;4.80;99894.00;;;;347010;28;90843;-88
2023/03/05 00:46:50;;;;;;;;;;;4.20;99.90;4.80;99893.00;;;;347493;28;82353;-88
2023/03/05 00:47:03;;;;;;;;;;;4.20;99.90;4.80;99899.00;;;;346608;27;90514;-88
2023/03/05 00:47:17;;;;;;;;;;;4.20;99.90;4.80;99891.00;;;;348912;27;83084;-89
2023/03/05 00:47:29;;;;;;;;;;;4.20;99.90;4.80;99890.00;;;;348423;27;88098;-88
2023/03/05 00:47:40;;;;;;;;;;;4.20;99.90;4.70;99895.00;;;;348913;27;83434;-88
2023/03/05 00:47:52;;;;;;;;;;;4.20;99.90;4.70;99895.00;;;;342812;28;91402;-88
2023/03/05 00:48:04;;;;;;;;;;;4.20;99.90;4.70;99891.00;;;;345977;28;83450;-88
2023/03/05 00:48:16;;;;;;;;;;;4.20;99.90;4.80;99889.00;;;;346916;28;88700;-88
2023/03/05 00:48:28;;;;;;;;;;;4.20;99.90;4.80;99896.00;;;;345934;28;83537;-88
2023/03/05 00:48:40;;;;;;;;;;;4.20;99.90;4.70;99887.00;;;;345578;28;91153;-88
2023/03/05 00:48:55;;;;;;;;;;;4.20;99.90;4.70;99891.00;;;;346013;28;83365;-88
2023/03/05 00:49:06;;;;;;;;;;;4.20;99.90;4.60;99898.00;;;;342771;28;91023;-88
2023/03/05 00:49:18;;;;;;;;;;;4.20;99.90;4.70;99890.00;;;;344587;28;83440;-88
2023/03/05 00:49:30;;;;;;;;;;;4.20;99.90;4.80;99894.00;;;;347765;27;90292;-88
2023/03/05 00:49:42;;;;;;;;;;;4.20;99.90;4.70;99890.00;;;;348791;27;83538;-88
2023/03/05 00:49:56;;;;;;;;;;;4.20;99.90;4.80;99888.00;;;;346949;28;90733;-88
2023/03/05 00:50:08;;;;;;;;;;;4.20;99.90;4.80;99897.00;;;;347508;28;83345;-87
2023/03/05 00:50:20;;;;;;;;;;;4.20;99.90;4.70;99888.00;;;;344037;28;92260;-89
2023/03/05 00:50:32;;;;;;;;;;;4.20;99.90;4.80;99900.00;;;;346044;28;83352;-88
2023/03/05 00:50:44;;;;;;;;;;;4.20;99.90;4.80;99885.00;;;;346987;28;90917;-89
2023/03/05 00:50:56;;;;;;;;;;;4.20;99.90;4.80;99884.00;;;;347392;28;83336;-88
2023/03/05 00:51:08;;;;;;;;;;;4.20;99.90;4.80;99897.00;;;;346998;28;91546;-88
2023/03/05 00:51:19;;;;;;;;;;;4.20;99.90;4.70;99885.00;;;;347211;28;83558;-88
2023/03/05 00:51:31;;;;;;;;;;;4.20;99.90;4.70;99894.00;;;;344177;28;88821;-89
2023/03/05 00:51:43;;;;;;;;;;;4.20;99.90;4.80;99894.00;;;;345906;28;83497;-88
2023/03/05 00:51:55;;;;;;;;;;;4.20;99.90;4.80;99891.00;;;;346974;28;89271;-88
2023/03/05 00:52:07;;;;;;;;;;;4.20;99.90;4.70;99897.00;;;;348832;27;82636;-89
2023/03/05 00:52:18;;;;;;;;;;;4.20;99.90;4.70;99896.00;;;;344064;28;92690;-88
2023/03/05 00:52:30;;;;;;;;;;;4.20;99.90;4.70;99898.00;;;;346003;28;82546;-88
2023/03/05 00:52:42;;;;;;;;;;;4.20;99.90;4.80;99889.00;;;;344299;28;88004;-88
2023/03/05 00:52:54;;;;;;;;;;;4.20;99.90;4.70;99891.00;;;;345954;28;83337;-88
2023/03/05 00:53:05;;;;;;;;;;;4.20;99.90;4.80;99889.00;;;;346793;28;91150;-88
2023/03/05 00:53:17;;;;;;;;;;;4.20;99.90;4.70;99893.00;;;;348817;27;83176;-88
2023/03/05 00:53:29;;;;;;;;;;;4.20;99.90;4.80;99874.00;;;;345487;28;87726;-88
2023/03/05 00:53:41;;;;;;;;;;;4.20;99.90;4.80;99879.00;;;;347379;28;83410;-88
2023/03/05 00:53:53;;;;;;;;;;;4.20;99.90;4.80;99888.00;;;;348353;27;92053;-89
2023/03/05 00:54:05;;;;;;;;;;;4.20;99.90;4.80;99884.00;;;;347176;28;83518;-89
2023/03/05 00:54:16;;;;;;;;;;;4.20;99.90;4.70;99888.00;;;;344205;28;89002;-89
2023/03/05 00:54:28;;;;;;;;;;;4.20;99.90;4.70;99894.00;;;;347305;28;83556;-88
2023/03/05 00:54:40;;;;;;;;;;;4.20;99.90;4.70;99890.00;;;;345362;28;90124;-88
2023/03/05 00:54:52;;;;;;;;;;;4.20;99.90;4.70;99891.00;;;;347494;28;83180;-88
2023/03/05 00:55:04;;;;;;;;;;;4.20;99.90;4.70;99890.00;;;;346957;28;89163;-88
2023/03/05 00:55:16;;;;;;;;;;;4.20;99.90;4.70;99889.00;;;;344388;28;83397;-88
2023/03/05 00:55:28;;;;;;;;;;;4.20;99.90;4.70;99889.00;;;;344127;28;91869;-88
2023/03/05 00:55:39;;;;;;;;;;;4.20;99.90;4.70;99885.00;;;;347350;28;82551;-88
2023/03/05 00:55:51;;;;;;;;;;;4.10;99.90;4.70;99880.00;;;;346957;28;91945;-89
2023/03/05 00:56:03;;;;;;;;;;;4.20;99.90;4.70;99891.00;;;;344669;28;83547;-89
2023/03/05 00:56:15;;;;;;;;;;;4.20;99.90;4.60;99895.00;;;;345509;28;89975;-88
2023/03/05 00:56:27;;;;;;;;;;;4.20;99.90;4.70;99875.00;;;;347439;27;82501;-88
2023/03/05 00:56:39;;;;;;;;;;;4.10;99.90;4.70;99872.00;;;;345488;28;91941;-88
2023/03/05 00:56:51;;;;;;;;;;;4.10;99.90;4.70;99880.00;;;;345929;28;82585;-89
2023/03/05 00:57:04;;;;;;;;;;;4.10;99.90;4.70;99894.00;;;;345551;28;89101;-89
2023/03/05 00:57:16;;;;;;;;;;;4.10;99.90;4.80;99881.00;;;;347352;28;83157;-89
2023/03/05 00:57:28;;;;;;;;;;;4.10;99.90;4.70;99891.00;;;;346687;28;90917;-88
2023/03/05 00:57:39;;;;;;;;;;;4.10;99.90;4.80;99885.00;;;;344623;28;82498;-89
2023/03/05 00:57:51;;;;;;;;;;;4.10;99.90;4.70;99882.00;;;;345602;28;91570;-88
2023/03/05 00:58:06;;;;;;;;;;;4.10;99.90;4.70;99885.00;;;;344711;28;83330;-89
2023/03/05 00:58:17;;;;;;;;;;;4.10;99.90;4.70;99885.00;;;;345465;28;91541;-88
2023/03/05 00:58:29;;;;;;;;;;;4.10;99.90;4.80;99882.00;;;;348751;27;83409;-88
2023/03/05 00:58:41;;;;;;;;;;;4.10;99.90;4.80;99890.00;;;;347098;28;89172;-89
2023/03/05 00:58:53;;;;;;;;;;;4.10;99.90;4.80;99881.00;;;;344609;28;82280;-88
2023/03/05 00:59:05;;;;;;;;;;;4.20;99.90;4.80;99886.00;;;;346742;28;90567;-88
2023/03/05 00:59:16;;;;;;;;;;;4.20;99.90;4.80;99886.00;;;;346106;28;82371;-88
2023/03/05 00:59:28;;;;;;;;;;;4.20;99.90;4.80;99879.00;;;;345572;28;89456;-89
2023/03/05 00:59:40;;;;;;;;;;;4.20;99.90;4.70;99887.00;;;;344613;28;83391;-89
2023/03/05 00:59:52;;;;;;;;;;;4.20;99.90;4.70;99887.00;;;;345606;28;91903;-88
2023/03/05 01:00:04;;;;;;;;;;;4.20;99.90;4.70;99877.00;;;;346008;28;82399;-89
2023/03/05 01:00:16;;;;;;;;;;;4.20;99.90;4.80;99880.00;;;;344192;28;90857;-88
2023/03/05 01:00:28;;;;;;;;;;;4.20;99.90;4.70;99880.00;;;;347053;27;83453;-88
2023/03/05 01:00:40;;;;;;;;;;;4.20;99.90;4.70;99890.00;;;;345660;28;88359;-88
2023/03/05 01:00:52;;;;;;;;;;;4.20;99.90;4.60;99882.00;;;;346006;28;83236;-88
2023/03/05 01:01:04;;;;;;;;;;;4.10;99.90;4.70;99887.00;;;;346818;28;91557;-89
2023/03/05 01:01:15;;;;;;;;;;;4.10;99.90;4.70;99890.00;;;;347017;28;83472;-88
2023/03/05 01:01:28;;;;;;;;;;;4.10;99.90;4.70;99895.00;;;;346974;28;91763;-88
2023/03/05 01:01:39;;;;;;;;;;;4.10;99.90;4.60;99890.00;;;;348426;27;83582;-89
2023/03/05 01:01:51;;;;;;;;;;;4.10;99.90;4.70;99891.00;;;;346996;28;88028;-88
2023/03/05 01:02:03;;;;;;;;;;;4.10;99.90;4.70;99883.00;;;;347385;28;82803;-89
2023/03/05 01:02:15;;;;;;;;;;;4.10;99.90;4.70;99876.00;;;;346842;28;91774;-89